sensor_id;sensor_type;location;lat;lon;timestamp;pressure;altitude;pressure_sealevel;temperature;humidity
50302;BME280;36550;50.472;19.744;2022-08-02T00:00:41;98054.09;;;18.90;75.46
50302;BME280;36550;50.472;19.744;2022-08-02T00:03:25;98054.47;;;18.83;75.71
50302;BME280;36550;50.472;19.744;2022-08-02T00:06:09;98056.87;;;18.79;75.99
50302;BME280;36550;50.472;19.744;2022-08-02T00:08:53;98055.33;;;18.76;76.12
50302;BME280;36550;50.472;19.744;2022-08-02T00:11:37;98062.77;;;18.74;76.25
50302;BME280;36550;50.472;19.744;2022-08-02T00:14:22;98058.79;;;18.74;76.18
50302;BME280;36550;50.472;19.744;2022-08-02T00:17:06;98056.45;;;18.70;76.82
50302;BME280;36550;50.472;19.744;2022-08-02T00:19:50;98065.02;;;18.66;76.52
50302;BME280;36550;50.472;19.744;2022-08-02T00:22:34;98069.30;;;18.62;76.49
50302;BME280;36550;50.472;19.744;2022-08-02T00:25:18;98073.06;;;18.59;76.43
50302;BME280;36550;50.472;19.744;2022-08-02T00:28:03;98077.09;;;18.56;76.45
50302;BME280;36550;50.472;19.744;2022-08-02T00:30:47;98073.95;;;18.52;76.51
50302;BME280;36550;50.472;19.744;2022-08-02T00:33:32;98075.60;;;18.47;76.59
50302;BME280;36550;50.472;19.744;2022-08-02T00:36:16;98073.81;;;18.43;76.54
50302;BME280;36550;50.472;19.744;2022-08-02T00:39:00;98083.71;;;18.37;76.68
50302;BME280;36550;50.472;19.744;2022-08-02T00:41:47;98078.72;;;18.31;77.28
50302;BME280;36550;50.472;19.744;2022-08-02T00:44:32;98080.97;;;18.21;77.69
50302;BME280;36550;50.472;19.744;2022-08-02T00:47:17;98078.36;;;18.13;77.94
50302;BME280;36550;50.472;19.744;2022-08-02T00:50:02;98080.80;;;18.09;77.57
50302;BME280;36550;50.472;19.744;2022-08-02T00:52:46;98082.43;;;18.08;77.46
50302;BME280;36550;50.472;19.744;2022-08-02T00:55:31;98085.09;;;18.05;77.51
50302;BME280;36550;50.472;19.744;2022-08-02T00:58:15;98089.11;;;18.03;77.74
50302;BME280;36550;50.472;19.744;2022-08-02T01:00:59;98086.19;;;18.02;77.68
50302;BME280;36550;50.472;19.744;2022-08-02T01:03:44;98094.43;;;18.00;77.87
50302;BME280;36550;50.472;19.744;2022-08-02T01:06:28;98096.06;;;17.99;77.87
50302;BME280;36550;50.472;19.744;2022-08-02T01:09:14;98094.74;;;17.96;77.93
50302;BME280;36550;50.472;19.744;2022-08-02T01:11:58;98101.41;;;17.94;78.02
50302;BME280;36550;50.472;19.744;2022-08-02T01:14:46;98099.58;;;17.92;78.10
50302;BME280;36550;50.472;19.744;2022-08-02T01:17:48;98107.28;;;17.91;78.05
50302;BME280;36550;50.472;19.744;2022-08-02T01:20:48;98113.67;;;17.89;78.08
50302;BME280;36550;50.472;19.744;2022-08-02T01:24:19;98109.69;;;17.89;78.21
50302;BME280;36550;50.472;19.744;2022-08-02T01:27:39;98115.20;;;17.93;78.35
50302;BME280;36550;50.472;19.744;2022-08-02T01:30:41;98110.13;;;17.97;78.39
50302;BME280;36550;50.472;19.744;2022-08-02T01:33:31;98109.58;;;18.00;78.32
50302;BME280;36550;50.472;19.744;2022-08-02T01:36:19;98108.52;;;18.01;78.32
50302;BME280;36550;50.472;19.744;2022-08-02T01:39:07;98110.36;;;18.00;78.63
50302;BME280;36550;50.472;19.744;2022-08-02T01:41:53;98106.14;;;17.99;78.50
50302;BME280;36550;50.472;19.744;2022-08-02T01:44:41;98110.94;;;17.97;78.46
50302;BME280;36550;50.472;19.744;2022-08-02T01:47:34;98102.98;;;17.95;78.49
50302;BME280;36550;50.472;19.744;2022-08-02T01:50:26;98108.56;;;17.93;78.44
50302;BME280;36550;50.472;19.744;2022-08-02T01:53:11;98107.03;;;17.89;78.40
50302;BME280;36550;50.472;19.744;2022-08-02T01:55:58;98103.84;;;17.87;78.49
50302;BME280;36550;50.472;19.744;2022-08-02T01:58:44;98099.34;;;17.85;78.44
50302;BME280;36550;50.472;19.744;2022-08-02T02:01:31;98098.84;;;17.86;78.47
50302;BME280;36550;50.472;19.744;2022-08-02T02:04:19;98101.49;;;17.86;78.52
50302;BME280;36550;50.472;19.744;2022-08-02T02:07:05;98095.37;;;17.83;78.77
50302;BME280;36550;50.472;19.744;2022-08-02T02:09:49;98103.37;;;17.78;78.67
50302;BME280;36550;50.472;19.744;2022-08-02T02:12:36;98101.03;;;17.71;78.71
50302;BME280;36550;50.472;19.744;2022-08-02T02:15:24;98103.48;;;17.65;79.43
50302;BME280;36550;50.472;19.744;2022-08-02T02:18:10;98098.75;;;17.59;79.62
50302;BME280;36550;50.472;19.744;2022-08-02T02:20:56;98103.79;;;17.58;79.43
50302;BME280;36550;50.472;19.744;2022-08-02T02:23:41;98101.44;;;17.57;79.35
50302;BME280;36550;50.472;19.744;2022-08-02T02:26:26;98099.05;;;17.55;79.30
50302;BME280;36550;50.472;19.744;2022-08-02T02:29:13;98093.75;;;17.53;79.22
50302;BME280;36550;50.472;19.744;2022-08-02T02:31:59;98102.02;;;17.51;79.34
50302;BME280;36550;50.472;19.744;2022-08-02T02:34:44;98106.78;;;17.49;79.47
50302;BME280;36550;50.472;19.744;2022-08-02T02:37:31;98111.06;;;17.47;79.45
50302;BME280;36550;50.472;19.744;2022-08-02T02:40:17;98110.00;;;17.46;79.43
50302;BME280;36550;50.472;19.744;2022-08-02T02:43:03;98109.49;;;17.44;79.69
50302;BME280;36550;50.472;19.744;2022-08-02T02:45:50;98112.69;;;17.41;79.72
50302;BME280;36550;50.472;19.744;2022-08-02T02:48:35;98115.38;;;17.38;79.84
50302;BME280;36550;50.472;19.744;2022-08-02T02:51:20;98115.40;;;17.33;80.38
50302;BME280;36550;50.472;19.744;2022-08-02T02:54:06;98114.89;;;17.31;80.26
50302;BME280;36550;50.472;19.744;2022-08-02T02:56:52;98117.27;;;17.30;80.32
50302;BME280;36550;50.472;19.744;2022-08-02T02:59:38;98121.25;;;17.30;80.85
50302;BME280;36550;50.472;19.744;2022-08-02T03:02:23;98116.21;;;17.28;80.93
50302;BME280;36550;50.472;19.744;2022-08-02T03:05:09;98114.88;;;17.28;81.06
50302;BME280;36550;50.472;19.744;2022-08-02T03:07:54;98116.21;;;17.28;80.91
50302;BME280;36550;50.472;19.744;2022-08-02T03:10:38;98114.08;;;17.30;80.88
50302;BME280;36550;50.472;19.744;2022-08-02T03:13:23;98110.09;;;17.33;80.74
50302;BME280;36550;50.472;19.744;2022-08-02T03:16:07;98112.75;;;17.33;80.70
50302;BME280;36550;50.472;19.744;2022-08-02T03:18:56;98109.83;;;17.35;80.59
50302;BME280;36550;50.472;19.744;2022-08-02T03:21:42;98114.83;;;17.36;80.60
50302;BME280;36550;50.472;19.744;2022-08-02T03:24:27;98112.75;;;17.33;80.67
50302;BME280;36550;50.472;19.744;2022-08-02T03:27:11;98110.91;;;17.31;80.71
50302;BME280;36550;50.472;19.744;2022-08-02T03:29:55;98113.80;;;17.32;80.66
50302;BME280;36550;50.472;19.744;2022-08-02T03:32:43;98115.64;;;17.34;81.17
50302;BME280;36550;50.472;19.744;2022-08-02T03:35:28;98113.50;;;17.36;80.70
50302;BME280;36550;50.472;19.744;2022-08-02T03:38:14;98112.14;;;17.41;80.68
50302;BME280;36550;50.472;19.744;2022-08-02T03:41:01;98112.63;;;17.48;80.67
50302;BME280;36550;50.472;19.744;2022-08-02T03:43:47;98116.30;;;17.55;80.63
50302;BME280;36550;50.472;19.744;2022-08-02T03:46:32;98112.26;;;17.63;80.60
50302;BME280;36550;50.472;19.744;2022-08-02T03:49:17;98115.12;;;17.69;80.63
50302;BME280;36550;50.472;19.744;2022-08-02T03:52:03;98104.16;;;17.78;80.60
50302;BME280;36550;50.472;19.744;2022-08-02T03:54:47;98117.39;;;17.88;80.53
50302;BME280;36550;50.472;19.744;2022-08-02T03:57:32;98121.25;;;18.01;80.43
50302;BME280;36550;50.472;19.744;2022-08-02T04:00:18;98121.41;;;18.15;80.55
50302;BME280;36550;50.472;19.744;2022-08-02T04:03:03;98122.61;;;18.25;80.24
50302;BME280;36550;50.472;19.744;2022-08-02T04:05:47;98120.97;;;18.30;80.13
50302;BME280;36550;50.472;19.744;2022-08-02T04:08:32;98121.20;;;18.33;80.08
50302;BME280;36550;50.472;19.744;2022-08-02T04:11:16;98134.75;;;18.34;80.41
50302;BME280;36550;50.472;19.744;2022-08-02T04:14:15;98136.85;;;18.37;80.25
50302;BME280;36550;50.472;19.744;2022-08-02T04:17:06;98143.45;;;18.40;80.49
50302;BME280;36550;50.472;19.744;2022-08-02T04:20:12;98140.76;;;18.42;80.57
50302;BME280;36550;50.472;19.744;2022-08-02T04:23:04;98155.14;;;18.41;80.25
50302;BME280;36550;50.472;19.744;2022-08-02T04:25:51;98153.25;;;18.44;80.32
50302;BME280;36550;50.472;19.744;2022-08-02T04:28:37;98157.16;;;18.50;80.57
50302;BME280;36550;50.472;19.744;2022-08-02T04:31:22;98162.66;;;18.58;80.54
50302;BME280;36550;50.472;19.744;2022-08-02T04:34:07;98164.40;;;18.68;80.51
50302;BME280;36550;50.472;19.744;2022-08-02T04:36:51;98167.73;;;18.79;80.42
50302;BME280;36550;50.472;19.744;2022-08-02T04:39:35;98163.91;;;18.90;80.34
50302;BME280;36550;50.472;19.744;2022-08-02T04:42:20;98168.61;;;18.98;80.32
50302;BME280;36550;50.472;19.744;2022-08-02T04:45:07;98173.05;;;19.03;80.10
50302;BME280;36550;50.472;19.744;2022-08-02T04:47:52;98175.66;;;19.08;79.99
50302;BME280;36550;50.472;19.744;2022-08-02T04:50:36;98179.04;;;19.14;79.73
50302;BME280;36550;50.472;19.744;2022-08-02T04:53:21;98174.20;;;19.18;79.62
50302;BME280;36550;50.472;19.744;2022-08-02T04:56:05;98178.20;;;19.18;79.41
50302;BME280;36550;50.472;19.744;2022-08-02T04:58:49;98174.97;;;19.21;79.33
50302;BME280;36550;50.472;19.744;2022-08-02T05:01:33;98173.33;;;19.23;79.09
50302;BME280;36550;50.472;19.744;2022-08-02T05:04:21;98178.38;;;19.24;79.01
50302;BME280;36550;50.472;19.744;2022-08-02T05:07:05;98179.69;;;19.27;78.87
50302;BME280;36550;50.472;19.744;2022-08-02T05:09:50;98178.53;;;19.33;78.85
50302;BME280;36550;50.472;19.744;2022-08-02T05:12:34;98179.52;;;19.40;78.79
50302;BME280;36550;50.472;19.744;2022-08-02T05:15:19;98180.74;;;19.45;78.67
50302;BME280;36550;50.472;19.744;2022-08-02T05:18:03;98181.78;;;19.49;78.52
50302;BME280;36550;50.472;19.744;2022-08-02T05:20:47;98183.22;;;19.58;78.60
50302;BME280;36550;50.472;19.744;2022-08-02T05:23:32;98183.44;;;19.61;78.15
50302;BME280;36550;50.472;19.744;2022-08-02T05:26:16;98189.79;;;19.66;78.17
50302;BME280;36550;50.472;19.744;2022-08-02T05:29:00;98195.63;;;19.65;78.03
50302;BME280;36550;50.472;19.744;2022-08-02T05:31:45;98193.45;;;19.70;77.99
50302;BME280;36550;50.472;19.744;2022-08-02T05:34:30;98201.11;;;19.76;77.87
50302;BME280;36550;50.472;19.744;2022-08-02T05:37:14;98203.16;;;19.82;77.73
50302;BME280;36550;50.472;19.744;2022-08-02T05:39:58;98199.38;;;19.86;77.64
50302;BME280;36550;50.472;19.744;2022-08-02T05:42:43;98206.31;;;19.84;77.41
50302;BME280;36550;50.472;19.744;2022-08-02T05:45:32;98210.33;;;19.81;77.32
50302;BME280;36550;50.472;19.744;2022-08-02T05:48:16;98209.81;;;19.82;77.32
50302;BME280;36550;50.472;19.744;2022-08-02T05:51:05;98208.08;;;19.91;77.39
50302;BME280;36550;50.472;19.744;2022-08-02T05:54:05;98210.11;;;19.97;77.07
50302;BME280;36550;50.472;19.744;2022-08-02T05:57:10;98217.20;;;20.04;77.04
50302;BME280;36550;50.472;19.744;2022-08-02T06:00:10;98219.73;;;20.12;76.80
50302;BME280;36550;50.472;19.744;2022-08-02T06:03:20;98224.38;;;20.20;76.79
50302;BME280;36550;50.472;19.744;2022-08-02T06:06:15;98228.29;;;20.42;76.35
50302;BME280;36550;50.472;19.744;2022-08-02T06:09:03;98231.17;;;20.62;76.31
50302;BME280;36550;50.472;19.744;2022-08-02T06:11:52;98228.76;;;20.76;76.22
50302;BME280;36550;50.472;19.744;2022-08-02T06:14:40;98237.07;;;20.89;75.77
50302;BME280;36550;50.472;19.744;2022-08-02T06:17:26;98242.05;;;20.93;75.33
50302;BME280;36550;50.472;19.744;2022-08-02T06:20:12;98246.31;;;20.94;75.13
50302;BME280;36550;50.472;19.744;2022-08-02T06:22:58;98250.45;;;21.00;74.71
50302;BME280;36550;50.472;19.744;2022-08-02T06:25:44;98248.53;;;21.03;74.67
50302;BME280;36550;50.472;19.744;2022-08-02T06:28:30;98250.07;;;21.07;74.45
50302;BME280;36550;50.472;19.744;2022-08-02T06:31:14;98250.01;;;21.09;74.02
50302;BME280;36550;50.472;19.744;2022-08-02T06:33:58;98253.59;;;21.30;74.10
50302;BME280;36550;50.472;19.744;2022-08-02T06:36:56;98252.32;;;21.66;74.29
50302;BME280;36550;50.472;19.744;2022-08-02T06:39:48;98254.79;;;21.99;73.42
50302;BME280;36550;50.472;19.744;2022-08-02T06:45:52;98261.47;;;22.56;72.23
50302;BME280;36550;50.472;19.744;2022-08-02T06:48:36;98270.60;;;22.75;71.75
50302;BME280;36550;50.472;19.744;2022-08-02T06:51:21;98266.77;;;22.78;70.68
50302;BME280;36550;50.472;19.744;2022-08-02T06:54:05;98272.11;;;22.90;70.88
50302;BME280;36550;50.472;19.744;2022-08-02T06:56:49;98271.19;;;23.14;70.11
50302;BME280;36550;50.472;19.744;2022-08-02T06:59:33;98276.58;;;23.23;69.74
50302;BME280;36550;50.472;19.744;2022-08-02T07:02:17;98274.06;;;23.27;69.31
50302;BME280;36550;50.472;19.744;2022-08-02T07:05:03;98273.42;;;23.30;69.02
50302;BME280;36550;50.472;19.744;2022-08-02T07:07:47;98271.08;;;23.28;68.44
50302;BME280;36550;50.472;19.744;2022-08-02T07:10:32;98276.10;;;23.30;68.53
50302;BME280;36550;50.472;19.744;2022-08-02T07:13:16;98271.36;;;23.47;68.46
50302;BME280;36550;50.472;19.744;2022-08-02T07:16:01;98269.47;;;23.64;68.50
50302;BME280;36550;50.472;19.744;2022-08-02T07:18:45;98265.25;;;23.81;67.49
50302;BME280;36550;50.472;19.744;2022-08-02T07:21:29;98266.28;;;23.91;66.51
50302;BME280;36550;50.472;19.744;2022-08-02T07:24:13;98269.19;;;24.10;66.04
50302;BME280;36550;50.472;19.744;2022-08-02T07:26:58;98268.67;;;24.34;65.88
50302;BME280;36550;50.472;19.744;2022-08-02T07:29:43;98265.41;;;24.52;64.94
50302;BME280;36550;50.472;19.744;2022-08-02T07:32:29;98266.61;;;24.57;64.37
50302;BME280;36550;50.472;19.744;2022-08-02T07:35:14;98268.42;;;24.83;64.22
50302;BME280;36550;50.472;19.744;2022-08-02T07:37:58;98268.39;;;24.91;63.99
50302;BME280;36550;50.472;19.744;2022-08-02T07:40:43;98270.16;;;25.02;63.87
50302;BME280;36550;50.472;19.744;2022-08-02T07:43:27;98270.24;;;25.14;63.42
50302;BME280;36550;50.472;19.744;2022-08-02T07:46:11;98274.55;;;25.22;62.20
50302;BME280;36550;50.472;19.744;2022-08-02T07:48:56;98269.22;;;25.13;62.14
50302;BME280;36550;50.472;19.744;2022-08-02T07:51:40;98260.84;;;25.00;61.83
50302;BME280;36550;50.472;19.744;2022-08-02T07:54:24;98270.31;;;25.06;61.81
50302;BME280;36550;50.472;19.744;2022-08-02T07:57:08;98269.56;;;25.11;61.62
50302;BME280;36550;50.472;19.744;2022-08-02T07:59:53;98270.30;;;25.21;61.05
50302;BME280;36550;50.472;19.744;2022-08-02T08:02:37;98264.39;;;25.36;62.18
50302;BME280;36550;50.472;19.744;2022-08-02T08:05:22;98268.72;;;25.49;61.84
50302;BME280;36550;50.472;19.744;2022-08-02T08:08:06;98269.94;;;25.61;61.15
50302;BME280;36550;50.472;19.744;2022-08-02T08:10:50;98276.52;;;25.78;60.47
50302;BME280;36550;50.472;19.744;2022-08-02T08:13:34;98276.52;;;25.78;60.47
50302;BME280;36550;50.472;19.744;2022-08-02T08:16:19;98273.62;;;25.98;60.21
50302;BME280;36550;50.472;19.744;2022-08-02T08:19:04;98277.33;;;26.00;59.35
50302;BME280;36550;50.472;19.744;2022-08-02T08:21:48;98278.23;;;25.83;59.24
50302;BME280;36550;50.472;19.744;2022-08-02T08:24:32;98283.50;;;25.85;59.53
50302;BME280;36550;50.472;19.744;2022-08-02T08:27:17;98287.20;;;25.87;59.17
50302;BME280;36550;50.472;19.744;2022-08-02T08:30:02;98285.68;;;25.77;58.27
50302;BME280;36550;50.472;19.744;2022-08-02T08:32:47;98290.66;;;25.81;58.79
50302;BME280;36550;50.472;19.744;2022-08-02T08:35:31;98290.46;;;25.86;58.75
50302;BME280;36550;50.472;19.744;2022-08-02T08:38:15;98294.55;;;25.78;58.87
50302;BME280;36550;50.472;19.744;2022-08-02T08:41:00;98301.19;;;25.65;58.98
50302;BME280;36550;50.472;19.744;2022-08-02T08:43:45;98302.59;;;25.57;59.01
50302;BME280;36550;50.472;19.744;2022-08-02T08:46:31;98302.19;;;25.31;57.71
50302;BME280;36550;50.472;19.744;2022-08-02T08:49:25;98305.08;;;25.17;58.33
50302;BME280;36550;50.472;19.744;2022-08-02T08:52:11;98304.27;;;25.25;58.31
50302;BME280;36550;50.472;19.744;2022-08-02T08:54:57;98307.84;;;25.38;58.16
50302;BME280;36550;50.472;19.744;2022-08-02T08:57:42;98308.16;;;25.36;58.02
50302;BME280;36550;50.472;19.744;2022-08-02T09:00:29;98314.62;;;25.06;58.19
50302;BME280;36550;50.472;19.744;2022-08-02T09:03:15;98316.14;;;24.68;58.30
50302;BME280;36550;50.472;19.744;2022-08-02T09:05:59;98310.09;;;24.39;58.42
50302;BME280;36550;50.472;19.744;2022-08-02T09:08:43;98316.59;;;24.29;58.81
50302;BME280;36550;50.472;19.744;2022-08-02T09:11:28;98315.71;;;24.40;59.09
50302;BME280;36550;50.472;19.744;2022-08-02T09:14:24;98317.39;;;24.71;59.08
50302;BME280;36550;50.472;19.744;2022-08-02T09:17:11;98322.03;;;25.00;58.88
50302;BME280;36550;50.472;19.744;2022-08-02T09:20:07;98319.32;;;25.09;58.26
50302;BME280;36550;50.472;19.744;2022-08-02T09:23:07;98324.23;;;25.07;57.80
50302;BME280;36550;50.472;19.744;2022-08-02T09:26:01;98319.72;;;24.90;57.97
50302;BME280;36550;50.472;19.744;2022-08-02T09:28:49;98324.96;;;24.77;57.63
50302;BME280;36550;50.472;19.744;2022-08-02T09:31:34;98327.81;;;24.72;57.96
50302;BME280;36550;50.472;19.744;2022-08-02T09:34:19;98325.02;;;24.84;58.08
50302;BME280;36550;50.472;19.744;2022-08-02T09:37:06;98328.58;;;24.82;57.71
50302;BME280;36550;50.472;19.744;2022-08-02T09:39:57;98328.82;;;24.83;57.91
50302;BME280;36550;50.472;19.744;2022-08-02T09:42:57;98329.56;;;24.68;58.07
50302;BME280;36550;50.472;19.744;2022-08-02T09:45:41;98336.28;;;24.59;58.37
50302;BME280;36550;50.472;19.744;2022-08-02T09:48:26;98322.67;;;24.82;58.14
50302;BME280;36550;50.472;19.744;2022-08-02T09:51:10;98315.27;;;25.17;57.83
50302;BME280;36550;50.472;19.744;2022-08-02T09:53:57;98324.74;;;25.68;57.64
50302;BME280;36550;50.472;19.744;2022-08-02T09:56:47;98319.81;;;26.06;56.76
50302;BME280;36550;50.472;19.744;2022-08-02T09:59:36;98317.00;;;26.30;56.48
50302;BME280;36550;50.472;19.744;2022-08-02T10:02:20;98319.16;;;26.37;55.89
50302;BME280;36550;50.472;19.744;2022-08-02T10:05:05;98320.76;;;26.44;55.64
50302;BME280;36550;50.472;19.744;2022-08-02T10:07:50;98320.00;;;26.56;54.95
50302;BME280;36550;50.472;19.744;2022-08-02T10:10:34;98316.03;;;26.74;55.09
50302;BME280;36550;50.472;19.744;2022-08-02T10:13:18;98311.12;;;26.88;54.69
50302;BME280;36550;50.472;19.744;2022-08-02T10:16:04;98311.80;;;26.92;54.58
50302;BME280;36550;50.472;19.744;2022-08-02T10:18:51;98309.23;;;26.89;54.46
50302;BME280;36550;50.472;19.744;2022-08-02T10:21:47;98308.90;;;26.97;54.58
50302;BME280;36550;50.472;19.744;2022-08-02T10:24:41;98317.78;;;27.22;53.42
50302;BME280;36550;50.472;19.744;2022-08-02T10:27:27;98309.91;;;27.66;53.32
50302;BME280;36550;50.472;19.744;2022-08-02T10:30:13;98312.34;;;27.71;52.84
50302;BME280;36550;50.472;19.744;2022-08-02T10:32:58;98309.86;;;27.78;52.70
50302;BME280;36550;50.472;19.744;2022-08-02T10:35:44;98314.83;;;27.64;52.68
50302;BME280;36550;50.472;19.744;2022-08-02T10:38:31;98315.42;;;27.33;52.09
50302;BME280;36550;50.472;19.744;2022-08-02T10:41:38;98316.64;;;27.23;52.76
50302;BME280;36550;50.472;19.744;2022-08-02T10:44:30;98315.68;;;27.28;52.50
50302;BME280;36550;50.472;19.744;2022-08-02T10:47:21;98314.89;;;27.33;52.44
50302;BME280;36550;50.472;19.744;2022-08-02T10:50:07;98320.73;;;27.35;52.34
50302;BME280;36550;50.472;19.744;2022-08-02T10:53:17;98317.33;;;27.38;51.94
50302;BME280;36550;50.472;19.744;2022-08-02T10:56:03;98327.22;;;27.34;52.03
50302;BME280;36550;50.472;19.744;2022-08-02T10:58:50;98333.06;;;27.36;51.76
50302;BME280;36550;50.472;19.744;2022-08-02T11:01:43;98332.95;;;27.33;50.71
50302;BME280;36550;50.472;19.744;2022-08-02T11:04:40;98337.88;;;27.24;51.73
50302;BME280;36550;50.472;19.744;2022-08-02T11:07:31;98323.41;;;27.29;51.21
50302;BME280;36550;50.472;19.744;2022-08-02T11:13:17;98325.64;;;27.15;51.26
50302;BME280;36550;50.472;19.744;2022-08-02T11:16:03;98326.75;;;27.14;51.12
50302;BME280;36550;50.472;19.744;2022-08-02T11:21:40;98327.80;;;27.28;51.62
50302;BME280;36550;50.472;19.744;2022-08-02T11:24:32;98313.77;;;27.40;51.15
50302;BME280;36550;50.472;19.744;2022-08-02T11:27:19;98319.16;;;27.40;51.44
50302;BME280;36550;50.472;19.744;2022-08-02T11:30:11;98319.71;;;27.46;51.81
50302;BME280;36550;50.472;19.744;2022-08-02T11:32:56;98321.36;;;27.63;52.24
50302;BME280;36550;50.472;19.744;2022-08-02T11:35:43;98316.94;;;27.77;51.91
50302;BME280;36550;50.472;19.744;2022-08-02T11:38:27;98311.42;;;27.98;51.18
50302;BME280;36550;50.472;19.744;2022-08-02T11:41:19;98313.95;;;28.13;50.63
50302;BME280;36550;50.472;19.744;2022-08-02T11:44:05;98319.07;;;28.24;50.30
50302;BME280;36550;50.472;19.744;2022-08-02T11:46:58;98310.70;;;28.35;50.00
50302;BME280;36550;50.472;19.744;2022-08-02T11:49:40;98315.65;;;28.39;49.16
50302;BME280;36550;50.472;19.744;2022-08-02T11:52:31;98311.89;;;28.44;49.66
50302;BME280;36550;50.472;19.744;2022-08-02T11:55:16;98315.11;;;28.34;49.30
50302;BME280;36550;50.472;19.744;2022-08-02T11:58:02;98312.30;;;28.02;49.46
50302;BME280;36550;50.472;19.744;2022-08-02T12:00:48;98311.21;;;27.78;50.35
50302;BME280;36550;50.472;19.744;2022-08-02T12:03:35;98314.16;;;27.73;49.95
50302;BME280;36550;50.472;19.744;2022-08-02T12:06:20;98320.48;;;27.59;50.16
50302;BME280;36550;50.472;19.744;2022-08-02T12:09:06;98306.08;;;26.99;49.90
50302;BME280;36550;50.472;19.744;2022-08-02T12:11:51;98306.08;;;26.99;49.90
50302;BME280;36550;50.472;19.744;2022-08-02T12:14:41;98303.94;;;26.86;50.49
50302;BME280;36550;50.472;19.744;2022-08-02T12:17:27;98308.55;;;26.86;50.67
50302;BME280;36550;50.472;19.744;2022-08-02T12:20:36;98301.45;;;26.81;50.52
50302;BME280;36550;50.472;19.744;2022-08-02T12:23:21;98300.34;;;26.82;50.72
50302;BME280;36550;50.472;19.744;2022-08-02T12:26:06;98300.91;;;26.88;51.11
50302;BME280;36550;50.472;19.744;2022-08-02T12:28:55;98305.42;;;27.02;51.09
50302;BME280;36550;50.472;19.744;2022-08-02T12:31:43;98298.56;;;27.23;50.32
50302;BME280;36550;50.472;19.744;2022-08-02T12:34:31;98292.64;;;27.42;49.87
50302;BME280;36550;50.472;19.744;2022-08-02T12:37:23;98293.37;;;27.74;49.96
50302;BME280;36550;50.472;19.744;2022-08-02T12:40:22;98289.09;;;28.13;49.39
50302;BME280;36550;50.472;19.744;2022-08-02T12:43:20;98289.19;;;28.45;48.95
50302;BME280;36550;50.472;19.744;2022-08-02T12:46:13;98293.06;;;28.60;47.64
50302;BME280;36550;50.472;19.744;2022-08-02T12:49:00;98291.08;;;28.45;47.40
50302;BME280;36550;50.472;19.744;2022-08-02T12:51:44;98302.55;;;28.48;48.17
50302;BME280;36550;50.472;19.744;2022-08-02T12:54:38;98296.66;;;28.52;47.74
50302;BME280;36550;50.472;19.744;2022-08-02T12:57:23;98303.45;;;28.46;47.37
50302;BME280;36550;50.472;19.744;2022-08-02T13:00:08;98297.47;;;28.30;48.28
50302;BME280;36550;50.472;19.744;2022-08-02T13:02:53;98293.72;;;28.13;48.52
50302;BME280;36550;50.472;19.744;2022-08-02T13:05:37;98301.20;;;27.85;47.84
50302;BME280;36550;50.472;19.744;2022-08-02T13:08:21;98306.53;;;27.63;48.66
50302;BME280;36550;50.472;19.744;2022-08-02T13:11:06;98307.91;;;27.57;49.12
50302;BME280;36550;50.472;19.744;2022-08-02T13:13:50;98304.52;;;27.66;48.91
50302;BME280;36550;50.472;19.744;2022-08-02T13:16:34;98295.52;;;27.62;48.12
50302;BME280;36550;50.472;19.744;2022-08-02T13:19:19;98301.14;;;27.63;48.27
50302;BME280;36550;50.472;19.744;2022-08-02T13:22:03;98301.03;;;27.59;48.07
50302;BME280;36550;50.472;19.744;2022-08-02T13:24:47;98300.23;;;27.65;48.71
50302;BME280;36550;50.472;19.744;2022-08-02T13:27:34;98290.44;;;27.79;47.98
50302;BME280;36550;50.472;19.744;2022-08-02T13:30:19;98288.41;;;27.76;46.71
50302;BME280;36550;50.472;19.744;2022-08-02T13:33:03;98286.03;;;27.80;47.20
50302;BME280;36550;50.472;19.744;2022-08-02T13:35:49;98285.02;;;27.91;47.61
50302;BME280;36550;50.472;19.744;2022-08-02T13:38:33;98284.45;;;27.85;47.64
50302;BME280;36550;50.472;19.744;2022-08-02T13:41:18;98290.67;;;27.68;47.51
50302;BME280;36550;50.472;19.744;2022-08-02T13:44:02;98286.36;;;27.32;48.57
50302;BME280;36550;50.472;19.744;2022-08-02T13:46:47;98288.13;;;27.03;48.46
50302;BME280;36550;50.472;19.744;2022-08-02T13:49:31;98284.31;;;26.86;49.00
50302;BME280;36550;50.472;19.744;2022-08-02T13:52:15;98290.71;;;26.87;49.82
50302;BME280;36550;50.472;19.744;2022-08-02T13:55:00;98295.63;;;26.79;49.80
50302;BME280;36550;50.472;19.744;2022-08-02T13:57:44;98295.89;;;26.59;49.97
50302;BME280;36550;50.472;19.744;2022-08-02T14:00:28;98296.37;;;26.28;50.46
50302;BME280;36550;50.472;19.744;2022-08-02T14:03:13;98300.44;;;26.07;51.67
50302;BME280;36550;50.472;19.744;2022-08-02T14:05:57;98288.50;;;25.81;51.36
50302;BME280;36550;50.472;19.744;2022-08-02T14:08:41;98287.03;;;25.56;51.59
50302;BME280;36550;50.472;19.744;2022-08-02T14:11:26;98289.00;;;25.32;52.57
50302;BME280;36550;50.472;19.744;2022-08-02T14:14:10;98285.86;;;25.21;52.71
50302;BME280;36550;50.472;19.744;2022-08-02T14:16:55;98290.52;;;25.27;53.19
50302;BME280;36550;50.472;19.744;2022-08-02T14:19:39;98286.81;;;25.25;52.99
50302;BME280;36550;50.472;19.744;2022-08-02T14:22:24;98287.98;;;25.22;53.00
50302;BME280;36550;50.472;19.744;2022-08-02T14:25:08;98285.97;;;25.19;53.15
50302;BME280;36550;50.472;19.744;2022-08-02T14:27:53;98287.98;;;25.07;53.20
50302;BME280;36550;50.472;19.744;2022-08-02T14:30:37;98280.23;;;25.05;53.03
50302;BME280;36550;50.472;19.744;2022-08-02T14:33:21;98283.17;;;25.06;52.75
50302;BME280;36550;50.472;19.744;2022-08-02T14:36:05;98278.44;;;25.03;53.15
50302;BME280;36550;50.472;19.744;2022-08-02T14:38:50;98280.23;;;24.90;52.96
50302;BME280;36550;50.472;19.744;2022-08-02T14:41:34;98283.84;;;24.71;53.30